This is the latest recevied weather packets stored in our database for station/object W6SNO-1. If no packets are shown the sender has not sent any weather packets the latest 10 day(s).
| Time | Temp. | Humidity | Pressure | Rain* | Wind** | Luminosity | Snow |
|---|---|---|---|---|---|---|---|
| 1787522347 | 32.78° C | 33% | 1012.5 hPa | 0 mm | - | 579 W/m² | - |
| 1787522043 | 32.78° C | 33% | 1012.3 hPa | 0 mm | - | 629 W/m² | - |
| 1787521742 | 32.22° C | 33% | 1012.4 hPa | 0 mm | - | 636 W/m² | - |
| 1787521437 | 32.22° C | 33% | 1012.5 hPa | 0 mm | - | 650 W/m² | - |
| 1787521131 | 31.67° C | 34% | 1012.5 hPa | 0 mm | - | 651 W/m² | - |
| 1787520522 | 31.67° C | 35% | 1012.7 hPa | 0 mm | - | 653 W/m² | - |
| 1787520218 | 31.67° C | 35% | 1012.8 hPa | 0 mm | - | 653 W/m² | - |
| 1787519917 | 31.67° C | 35% | 1012.7 hPa | 0 mm | - | 666 W/m² | - |
| 1787519008 | 31.11° C | 36% | 1012.8 hPa | 0 mm | - | 704 W/m² | - |
| 1787518703 | 31.11° C | 36% | 1012.9 hPa | 0 mm | - | 704 W/m² | - |
| 1787517789 | 30° C | 36% | 1012.9 hPa | 0 mm | - | 704 W/m² | - |
| 1787517486 | 30° C | 36% | 1013.1 hPa | 0 mm | - | 704 W/m² | - |
| 1787517183 | 30.56° C | 35% | 1013 hPa | 0 mm | - | 697 W/m² | - |
| 1787516881 | 29.44° C | 36% | 1013 hPa | 0 mm | - | 684 W/m² | - |
| 1787516577 | 29.44° C | 36% | 1012.9 hPa | 0 mm | - | 684 W/m² | - |
| 1787516277 | 30° C | 37% | 1013 hPa | 0 mm | - | 692 W/m² | - |
| 1787515971 | 29.44° C | 38% | 1013.2 hPa | 0 mm | - | 705 W/m² | - |
| 1787515362 | 29.44° C | 37% | 1013.3 hPa | 0 mm | - | 651 W/m² | - |
| 1787515057 | 29.44° C | 37% | 1013.3 hPa | 0 mm | - | 651 W/m² | - |
| 1787469482 | 16.67° C | 85% | 1015 hPa | 0 mm | - | 0 W/m² | - |
| 1787469177 | 16.67° C | 85% | 1015.3 hPa | 0 mm | - | 0 W/m² | - |
| 1787468873 | 16.67° C | 84% | 1015.2 hPa | 0 mm | - | 0 W/m² | - |
| 1787468569 | 16.67° C | 84% | 1015.2 hPa | 0 mm | - | 0 W/m² | - |
| 1787468263 | 16.67° C | 84% | 1015.2 hPa | 0 mm | - | 0 W/m² | - |
| 1787467960 | 16.67° C | 84% | 1015 hPa | 0 mm | - | 0 W/m² | - |
* Rain latest hour (hover to see other rain measurements)
** Current wind speed in m/s (hover to see current wind gust speed)